sensor_id;sensor_type;location;lat;lon;timestamp;pressure;altitude;pressure_sealevel;temperature;humidity
40612;BME280;26317;44.894;20.286;2023-08-30T00:00:34;99493.66;;;22.65;72.03
40612;BME280;26317;44.894;20.286;2023-08-30T00:03:20;99486.25;;;22.65;71.02
40612;BME280;26317;44.894;20.286;2023-08-30T00:06:05;99500.28;;;22.64;71.89
40612;BME280;26317;44.894;20.286;2023-08-30T00:08:54;99488.50;;;22.60;72.14
40612;BME280;26317;44.894;20.286;2023-08-30T00:11:43;99484.59;;;22.57;71.47
40612;BME280;26317;44.894;20.286;2023-08-30T00:14:25;99477.16;;;22.54;70.91
40612;BME280;26317;44.894;20.286;2023-08-30T00:17:04;99490.06;;;22.57;70.61
40612;BME280;26317;44.894;20.286;2023-08-30T00:19:47;99485.75;;;22.56;71.06
40612;BME280;26317;44.894;20.286;2023-08-30T00:22:36;99486.91;;;22.55;70.94
40612;BME280;26317;44.894;20.286;2023-08-30T00:25:12;99496.66;;;22.53;70.46
40612;BME280;26317;44.894;20.286;2023-08-30T00:27:46;99507.22;;;22.54;70.99
40612;BME280;26317;44.894;20.286;2023-08-30T00:30:43;99511.91;;;22.54;71.42
40612;BME280;26317;44.894;20.286;2023-08-30T00:33:26;99519.31;;;22.53;71.49
40612;BME280;26317;44.894;20.286;2023-08-30T00:36:04;99516.91;;;22.48;70.90
40612;BME280;26317;44.894;20.286;2023-08-30T00:38:45;99528.19;;;22.43;71.07
40612;BME280;26317;44.894;20.286;2023-08-30T00:41:17;99517.22;;;22.39;70.56
40612;BME280;26317;44.894;20.286;2023-08-30T00:43:53;99525.69;;;22.31;70.90
40612;BME280;26317;44.894;20.286;2023-08-30T00:46:39;99516.31;;;22.28;70.76
40612;BME280;26317;44.894;20.286;2023-08-30T00:49:18;99514.69;;;22.24;71.00
40612;BME280;26317;44.894;20.286;2023-08-30T00:52:02;99517.75;;;22.19;71.18
40612;BME280;26317;44.894;20.286;2023-08-30T00:54:46;99513.38;;;22.11;70.55
40612;BME280;26317;44.894;20.286;2023-08-30T00:57:29;99518.84;;;22.11;70.88
40612;BME280;26317;44.894;20.286;2023-08-30T01:00:06;99516.84;;;22.08;70.81
40612;BME280;26317;44.894;20.286;2023-08-30T01:02:57;99516.34;;;21.98;70.85
40612;BME280;26317;44.894;20.286;2023-08-30T01:05:49;99538.94;;;21.95;70.84
40612;BME280;26317;44.894;20.286;2023-08-30T01:08:25;99551.75;;;21.91;71.01
40612;BME280;26317;44.894;20.286;2023-08-30T01:11:21;99540.31;;;21.82;71.56
40612;BME280;26317;44.894;20.286;2023-08-30T01:14:10;99543.34;;;21.77;71.84
40612;BME280;26317;44.894;20.286;2023-08-30T01:16:50;99531.06;;;21.64;71.71
40612;BME280;26317;44.894;20.286;2023-08-30T01:19:39;99547.13;;;21.69;72.24
40612;BME280;26317;44.894;20.286;2023-08-30T01:22:24;99558.81;;;21.66;73.39
40612;BME280;26317;44.894;20.286;2023-08-30T01:25:20;99562.25;;;21.63;73.23
40612;BME280;26317;44.894;20.286;2023-08-30T01:28:12;99566.91;;;21.63;74.34
40612;BME280;26317;44.894;20.286;2023-08-30T01:30:57;99569.66;;;21.63;74.40
40612;BME280;26317;44.894;20.286;2023-08-30T01:33:40;99575.50;;;21.61;74.94
40612;BME280;26317;44.894;20.286;2023-08-30T01:36:18;99553.81;;;21.45;75.31
40612;BME280;26317;44.894;20.286;2023-08-30T01:38:53;99562.50;;;21.54;74.83
40612;BME280;26317;44.894;20.286;2023-08-30T01:41:34;99562.47;;;21.51;74.96
40612;BME280;26317;44.894;20.286;2023-08-30T01:44:14;99551.97;;;21.53;75.19
40612;BME280;26317;44.894;20.286;2023-08-30T01:46:50;99555.91;;;21.55;75.37
40612;BME280;26317;44.894;20.286;2023-08-30T01:49:30;99556.69;;;21.56;75.35
40612;BME280;26317;44.894;20.286;2023-08-30T01:52:10;99558.28;;;21.57;75.09
40612;BME280;26317;44.894;20.286;2023-08-30T01:54:44;99557.13;;;21.58;75.26
40612;BME280;26317;44.894;20.286;2023-08-30T01:57:20;99558.69;;;21.59;75.39
40612;BME280;26317;44.894;20.286;2023-08-30T02:00:16;99554.41;;;21.58;75.44
40612;BME280;26317;44.894;20.286;2023-08-30T02:02:59;99521.34;;;21.37;75.86
40612;BME280;26317;44.894;20.286;2023-08-30T02:05:39;99549.66;;;21.55;76.20
40612;BME280;26317;44.894;20.286;2023-08-30T02:08:21;99550.50;;;21.59;76.28
40612;BME280;26317;44.894;20.286;2023-08-30T02:11:11;99549.69;;;21.58;76.33
40612;BME280;26317;44.894;20.286;2023-08-30T02:13:47;99542.69;;;21.58;76.85
40612;BME280;26317;44.894;20.286;2023-08-30T02:16:39;99531.44;;;21.63;77.40
40612;BME280;26317;44.894;20.286;2023-08-30T02:19:19;99538.88;;;21.62;77.14
40612;BME280;26317;44.894;20.286;2023-08-30T02:21:54;99537.69;;;21.63;76.43
40612;BME280;26317;44.894;20.286;2023-08-30T02:24:30;99547.53;;;21.71;76.70
40612;BME280;26317;44.894;20.286;2023-08-30T02:27:13;99540.16;;;21.72;76.64
40612;BME280;26317;44.894;20.286;2023-08-30T02:29:48;99525.53;;;21.57;77.07
40612;BME280;26317;44.894;20.286;2023-08-30T02:32:24;99542.88;;;21.72;76.88
40612;BME280;26317;44.894;20.286;2023-08-30T02:35:00;99544.06;;;21.71;76.55
40612;BME280;26317;44.894;20.286;2023-08-30T02:37:41;99546.41;;;21.72;76.62
40612;BME280;26317;44.894;20.286;2023-08-30T02:40:28;99551.44;;;21.70;76.39
40612;BME280;26317;44.894;20.286;2023-08-30T02:43:06;99535.38;;;21.65;76.19
40612;BME280;26317;44.894;20.286;2023-08-30T02:45:41;99533.00;;;21.64;75.62
40612;BME280;26317;44.894;20.286;2023-08-30T02:48:29;99542.00;;;21.64;75.89
40612;BME280;26317;44.894;20.286;2023-08-30T02:51:03;99541.25;;;21.67;76.58
40612;BME280;26317;44.894;20.286;2023-08-30T02:53:35;99547.50;;;21.68;76.46
40612;BME280;26317;44.894;20.286;2023-08-30T02:56:12;99542.44;;;21.66;76.23
40612;BME280;26317;44.894;20.286;2023-08-30T02:58:50;99545.81;;;21.60;76.21
40612;BME280;26317;44.894;20.286;2023-08-30T03:01:32;99543.47;;;21.58;76.67
40612;BME280;26317;44.894;20.286;2023-08-30T03:04:21;99543.47;;;21.58;76.41
40612;BME280;26317;44.894;20.286;2023-08-30T03:06:54;99537.19;;;21.54;76.92
40612;BME280;26317;44.894;20.286;2023-08-30T03:09:40;99539.91;;;21.54;77.18
40612;BME280;26317;44.894;20.286;2023-08-30T03:12:21;99528.53;;;21.48;77.79
40612;BME280;26317;44.894;20.286;2023-08-30T03:15:01;99535.91;;;21.48;77.53
40612;BME280;26317;44.894;20.286;2023-08-30T03:17:32;99533.13;;;21.44;77.52
40612;BME280;26317;44.894;20.286;2023-08-30T03:20:23;99530.75;;;21.43;77.70
40612;BME280;26317;44.894;20.286;2023-08-30T03:23:01;99528.03;;;21.43;78.22
40612;BME280;26317;44.894;20.286;2023-08-30T03:25:40;99526.09;;;21.43;78.64
40612;BME280;26317;44.894;20.286;2023-08-30T03:28:22;99524.56;;;21.46;78.62
40612;BME280;26317;44.894;20.286;2023-08-30T03:31:15;99520.28;;;21.45;78.74
40612;BME280;26317;44.894;20.286;2023-08-30T03:33:53;99516.72;;;21.41;79.18
40612;BME280;26317;44.894;20.286;2023-08-30T03:36:30;99526.78;;;21.37;79.70
40612;BME280;26317;44.894;20.286;2023-08-30T03:39:08;99512.72;;;21.35;79.23
40612;BME280;26317;44.894;20.286;2023-08-30T03:41:47;99518.91;;;21.32;79.19
40612;BME280;26317;44.894;20.286;2023-08-30T03:44:28;99527.63;;;21.41;79.31
40612;BME280;26317;44.894;20.286;2023-08-30T03:47:09;99520.59;;;21.40;79.62
40612;BME280;26317;44.894;20.286;2023-08-30T03:49:51;99520.50;;;21.33;79.77
40612;BME280;26317;44.894;20.286;2023-08-30T03:52:35;99525.16;;;21.32;79.96
40612;BME280;26317;44.894;20.286;2023-08-30T03:55:15;99534.50;;;21.31;80.50
40612;BME280;26317;44.894;20.286;2023-08-30T03:57:46;99521.13;;;21.23;80.62
40612;BME280;26317;44.894;20.286;2023-08-30T04:00:36;99528.09;;;21.20;81.81
40612;BME280;26317;44.894;20.286;2023-08-30T04:03:10;99508.69;;;21.02;81.99
40612;BME280;26317;44.894;20.286;2023-08-30T04:05:57;99530.69;;;21.13;81.85
40612;BME280;26317;44.894;20.286;2023-08-30T04:08:36;99534.91;;;21.10;82.00
40612;BME280;26317;44.894;20.286;2023-08-30T04:11:31;99529.13;;;21.12;81.73
40612;BME280;26317;44.894;20.286;2023-08-30T04:14:08;99528.31;;;21.11;81.44
40612;BME280;26317;44.894;20.286;2023-08-30T04:16:52;99524.09;;;21.14;81.57
40612;BME280;26317;44.894;20.286;2023-08-30T04:19:29;99525.25;;;21.13;81.69
40612;BME280;26317;44.894;20.286;2023-08-30T04:22:10;99513.47;;;21.09;81.82
40612;BME280;26317;44.894;20.286;2023-08-30T04:24:53;99530.75;;;21.17;82.95
40612;BME280;26317;44.894;20.286;2023-08-30T04:27:35;99544.38;;;21.17;83.42
40612;BME280;26317;44.894;20.286;2023-08-30T04:30:29;99544.69;;;21.11;83.94
40612;BME280;26317;44.894;20.286;2023-08-30T04:33:06;99548.00;;;21.01;84.43
40612;BME280;26317;44.894;20.286;2023-08-30T04:35:41;99559.75;;;21.05;84.40
40612;BME280;26317;44.894;20.286;2023-08-30T04:38:16;99556.69;;;21.07;83.91
40612;BME280;26317;44.894;20.286;2023-08-30T04:41:02;99548.06;;;21.05;83.44
40612;BME280;26317;44.894;20.286;2023-08-30T04:43:38;99531.28;;;21.03;83.66
40612;BME280;26317;44.894;20.286;2023-08-30T04:46:09;99538.78;;;21.09;84.00
40612;BME280;26317;44.894;20.286;2023-08-30T04:48:52;99531.91;;;21.16;84.51
40612;BME280;26317;44.894;20.286;2023-08-30T04:51:33;99546.50;;;21.27;85.10
40612;BME280;26317;44.894;20.286;2023-08-30T04:54:04;99547.69;;;21.29;84.99
40612;BME280;26317;44.894;20.286;2023-08-30T04:56:39;99556.38;;;21.35;84.68
40612;BME280;26317;44.894;20.286;2023-08-30T04:59:16;99555.22;;;21.36;85.06
40612;BME280;26317;44.894;20.286;2023-08-30T05:01:48;99559.53;;;21.37;85.89
40612;BME280;26317;44.894;20.286;2023-08-30T05:04:26;99556.91;;;21.44;85.83
40612;BME280;26317;44.894;20.286;2023-08-30T05:06:59;99553.34;;;21.40;86.13
40612;BME280;26317;44.894;20.286;2023-08-30T05:09:34;99552.66;;;21.46;85.63
40612;BME280;26317;44.894;20.286;2023-08-30T05:12:11;99545.28;;;21.50;85.49
40612;BME280;26317;44.894;20.286;2023-08-30T05:14:48;99532.34;;;21.44;85.97
40612;BME280;26317;44.894;20.286;2023-08-30T05:17:33;99523.72;;;21.42;85.89
40612;BME280;26317;44.894;20.286;2023-08-30T05:20:09;99522.22;;;21.44;85.84
40612;BME280;26317;44.894;20.286;2023-08-30T05:22:49;99547.13;;;21.43;87.21
40612;BME280;26317;44.894;20.286;2023-08-30T05:25:29;99570.53;;;21.44;88.63
40612;BME280;26317;44.894;20.286;2023-08-30T05:28:12;99566.97;;;21.40;89.63
40612;BME280;26317;44.894;20.286;2023-08-30T05:30:47;99546.16;;;21.28;90.93
40612;BME280;26317;44.894;20.286;2023-08-30T05:33:42;99542.81;;;21.16;91.54
40612;BME280;26317;44.894;20.286;2023-08-30T05:36:34;99546.91;;;21.06;91.67
40612;BME280;26317;44.894;20.286;2023-08-30T05:39:36;99562.78;;;21.00;92.17
40612;BME280;26317;44.894;20.286;2023-08-30T05:42:06;99566.75;;;21.03;91.93
40612;BME280;26317;44.894;20.286;2023-08-30T05:44:47;99561.69;;;21.05;91.83
40612;BME280;26317;44.894;20.286;2023-08-30T05:47:21;99567.19;;;21.08;91.96
40612;BME280;26317;44.894;20.286;2023-08-30T05:49:54;99574.81;;;21.19;92.46
40612;BME280;26317;44.894;20.286;2023-08-30T05:52:28;99573.38;;;21.25;91.77
40612;BME280;26317;44.894;20.286;2023-08-30T05:55:09;99565.69;;;21.34;91.90
40612;BME280;26317;44.894;20.286;2023-08-30T05:57:48;99564.19;;;21.36;91.27
40612;BME280;26317;44.894;20.286;2023-08-30T06:00:36;99565.84;;;21.41;90.44
40612;BME280;26317;44.894;20.286;2023-08-30T06:03:08;99562.00;;;21.45;91.08
40612;BME280;26317;44.894;20.286;2023-08-30T06:05:42;99566.78;;;21.52;90.27
40612;BME280;26317;44.894;20.286;2023-08-30T06:08:20;99560.88;;;21.50;90.32
40612;BME280;26317;44.894;20.286;2023-08-30T06:10:56;99575.50;;;21.61;90.03
40612;BME280;26317;44.894;20.286;2023-08-30T06:13:40;99580.28;;;21.71;89.78
40612;BME280;26317;44.894;20.286;2023-08-30T06:16:21;99591.59;;;21.70;89.75
40612;BME280;26317;44.894;20.286;2023-08-30T06:18:57;99594.63;;;21.65;89.51
40612;BME280;26317;44.894;20.286;2023-08-30T06:21:50;99612.66;;;21.69;89.96
40612;BME280;26317;44.894;20.286;2023-08-30T06:24:30;99590.28;;;21.60;89.71
40612;BME280;26317;44.894;20.286;2023-08-30T06:27:07;99612.34;;;21.74;89.46
40612;BME280;26317;44.894;20.286;2023-08-30T06:29:46;99606.50;;;21.76;90.25
40612;BME280;26317;44.894;20.286;2023-08-30T06:32:25;99618.59;;;21.75;90.29
40612;BME280;26317;44.894;20.286;2023-08-30T06:35:04;99622.41;;;21.70;90.56
40612;BME280;26317;44.894;20.286;2023-08-30T06:37:38;99615.38;;;21.69;90.18
40612;BME280;26317;44.894;20.286;2023-08-30T06:40:35;99621.59;;;21.66;89.40
40612;BME280;26317;44.894;20.286;2023-08-30T06:43:22;99624.09;;;21.78;88.97
40612;BME280;26317;44.894;20.286;2023-08-30T06:45:58;99625.03;;;21.89;88.37
40612;BME280;26317;44.894;20.286;2023-08-30T06:48:46;99624.44;;;21.99;88.40
40612;BME280;26317;44.894;20.286;2023-08-30T06:51:21;99630.00;;;22.07;87.28
40612;BME280;26317;44.894;20.286;2023-08-30T06:54:02;99631.66;;;22.15;86.55
40612;BME280;26317;44.894;20.286;2023-08-30T06:56:38;99644.69;;;22.25;86.28
40612;BME280;26317;44.894;20.286;2023-08-30T06:59:27;99650.59;;;22.30;85.95
40612;BME280;26317;44.894;20.286;2023-08-30T07:02:20;99660.00;;;22.33;86.10
40612;BME280;26317;44.894;20.286;2023-08-30T07:05:08;99666.31;;;22.37;87.18
40612;BME280;26317;44.894;20.286;2023-08-30T07:07:47;99665.94;;;22.38;88.13
40612;BME280;26317;44.894;20.286;2023-08-30T07:10:19;99665.47;;;22.33;88.63
40612;BME280;26317;44.894;20.286;2023-08-30T07:13:00;99656.34;;;22.22;88.71
40612;BME280;26317;44.894;20.286;2023-08-30T07:15:43;99656.03;;;22.27;90.58
40612;BME280;26317;44.894;20.286;2023-08-30T07:18:17;99648.66;;;22.31;89.69
40612;BME280;26317;44.894;20.286;2023-08-30T07:21:12;99652.25;;;22.38;89.37
40612;BME280;26317;44.894;20.286;2023-08-30T07:23:51;99647.66;;;22.46;89.82
40612;BME280;26317;44.894;20.286;2023-08-30T07:26:33;99651.66;;;22.52;90.06
40612;BME280;26317;44.894;20.286;2023-08-30T07:29:11;99650.88;;;22.52;91.94
40612;BME280;26317;44.894;20.286;2023-08-30T07:31:49;99648.22;;;22.59;89.80
40612;BME280;26317;44.894;20.286;2023-08-30T07:34:30;99654.19;;;22.68;89.14
40612;BME280;26317;44.894;20.286;2023-08-30T07:37:24;99653.94;;;22.76;87.28
40612;BME280;26317;44.894;20.286;2023-08-30T07:40:02;99662.16;;;22.80;84.93
40612;BME280;26317;44.894;20.286;2023-08-30T07:42:45;99647.63;;;22.72;86.88
40612;BME280;26317;44.894;20.286;2023-08-30T07:45:18;99658.78;;;22.90;85.47
40612;BME280;26317;44.894;20.286;2023-08-30T07:47:55;99667.00;;;22.93;85.94
40612;BME280;26317;44.894;20.286;2023-08-30T07:50:37;99659.25;;;22.99;85.05
40612;BME280;26317;44.894;20.286;2023-08-30T07:53:26;99676.19;;;23.12;84.58
40612;BME280;26317;44.894;20.286;2023-08-30T07:56:04;99680.59;;;23.20;83.65
40612;BME280;26317;44.894;20.286;2023-08-30T07:58:44;99684.94;;;23.24;83.10
40612;BME280;26317;44.894;20.286;2023-08-30T08:01:25;99688.53;;;23.35;82.16
40612;BME280;26317;44.894;20.286;2023-08-30T08:03:59;99691.34;;;23.43;83.42
40612;BME280;26317;44.894;20.286;2023-08-30T08:06:40;99697.28;;;23.48;82.01
40612;BME280;26317;44.894;20.286;2023-08-30T08:09:27;99692.69;;;23.59;82.10
40612;BME280;26317;44.894;20.286;2023-08-30T08:12:07;99683.34;;;23.64;81.55
40612;BME280;26317;44.894;20.286;2023-08-30T08:14:40;99686.53;;;23.69;81.06
40612;BME280;26317;44.894;20.286;2023-08-30T08:17:19;99676.41;;;23.77;80.60
40612;BME280;26317;44.894;20.286;2023-08-30T08:19:59;99686.66;;;23.83;79.96
40612;BME280;26317;44.894;20.286;2023-08-30T08:22:31;99696.88;;;23.90;79.33
40612;BME280;26317;44.894;20.286;2023-08-30T08:25:20;99694.94;;;23.94;78.92
40612;BME280;26317;44.894;20.286;2023-08-30T08:28:08;99698.47;;;23.95;79.38
40612;BME280;26317;44.894;20.286;2023-08-30T08:30:57;99696.13;;;23.97;79.81
40612;BME280;26317;44.894;20.286;2023-08-30T08:33:49;99705.19;;;24.04;81.24
40612;BME280;26317;44.894;20.286;2023-08-30T08:36:31;99702.56;;;24.22;83.50
40612;BME280;26317;44.894;20.286;2023-08-30T08:39:06;99700.31;;;24.35;82.37
40612;BME280;26317;44.894;20.286;2023-08-30T08:41:48;99699.22;;;24.46;81.53
40612;BME280;26317;44.894;20.286;2023-08-30T08:44:31;99698.47;;;24.60;77.41
40612;BME280;26317;44.894;20.286;2023-08-30T08:47:21;99689.88;;;24.61;77.57
40612;BME280;26317;44.894;20.286;2023-08-30T08:50:00;99699.69;;;24.69;74.10
40612;BME280;26317;44.894;20.286;2023-08-30T08:52:42;99691.13;;;24.82;71.74
40612;BME280;26317;44.894;20.286;2023-08-30T08:55:31;99698.19;;;24.83;68.78
40612;BME280;26317;44.894;20.286;2023-08-30T08:58:15;99693.97;;;25.03;68.43
40612;BME280;26317;44.894;20.286;2023-08-30T09:00:58;99690.81;;;24.97;68.44
40612;BME280;26317;44.894;20.286;2023-08-30T09:04:04;99673.56;;;24.97;68.41
40612;BME280;26317;44.894;20.286;2023-08-30T09:06:35;99670.44;;;25.02;65.68
40612;BME280;26317;44.894;20.286;2023-08-30T09:09:26;99662.63;;;25.04;68.23
40612;BME280;26317;44.894;20.286;2023-08-30T09:12:08;99655.19;;;25.15;67.48
40612;BME280;26317;44.894;20.286;2023-08-30T09:15:11;99660.69;;;25.33;67.44
40612;BME280;26317;44.894;20.286;2023-08-30T09:17:55;99641.84;;;25.28;64.04
40612;BME280;26317;44.894;20.286;2023-08-30T09:20:36;99654.41;;;25.39;65.24
40612;BME280;26317;44.894;20.286;2023-08-30T09:23:26;99649.69;;;25.47;65.00
40612;BME280;26317;44.894;20.286;2023-08-30T09:26:18;99653.28;;;25.58;63.94
40612;BME280;26317;44.894;20.286;2023-08-30T09:29:01;99654.44;;;25.68;62.83
40612;BME280;26317;44.894;20.286;2023-08-30T09:31:44;99656.03;;;25.76;61.44
40612;BME280;26317;44.894;20.286;2023-08-30T09:34:44;99650.53;;;25.76;62.84
40612;BME280;26317;44.894;20.286;2023-08-30T09:37:21;99652.47;;;25.86;58.20
40612;BME280;26317;44.894;20.286;2023-08-30T09:39:54;99653.22;;;25.93;55.88
40612;BME280;26317;44.894;20.286;2023-08-30T09:42:27;99651.66;;;26.03;55.87
40612;BME280;26317;44.894;20.286;2023-08-30T09:45:09;99658.31;;;26.13;55.98
40612;BME280;26317;44.894;20.286;2023-08-30T09:48:03;99658.72;;;26.22;51.26
40612;BME280;26317;44.894;20.286;2023-08-30T09:50:53;99653.56;;;26.27;50.78
40612;BME280;26317;44.894;20.286;2023-08-30T09:53:32;99650.81;;;26.38;55.96
40612;BME280;26317;44.894;20.286;2023-08-30T09:56:37;99651.19;;;26.36;56.49
40612;BME280;26317;44.894;20.286;2023-08-30T09:59:19;99648.06;;;26.31;52.87
40612;BME280;26317;44.894;20.286;2023-08-30T10:01:59;99650.00;;;26.41;52.83
40612;BME280;26317;44.894;20.286;2023-08-30T10:04:43;99644.81;;;26.57;48.29
40612;BME280;26317;44.894;20.286;2023-08-30T10:07:25;99634.19;;;26.63;47.24
40612;BME280;26317;44.894;20.286;2023-08-30T10:10:16;99628.22;;;26.78;47.29
40612;BME280;26317;44.894;20.286;2023-08-30T10:12:54;99632.16;;;26.77;52.40
40612;BME280;26317;44.894;20.286;2023-08-30T10:15:45;99629.78;;;26.79;51.55
40612;BME280;26317;44.894;20.286;2023-08-30T10:18:25;99641.59;;;26.80;49.88
40612;BME280;26317;44.894;20.286;2023-08-30T10:21:05;99643.19;;;26.74;50.10
40612;BME280;26317;44.894;20.286;2023-08-30T10:23:42;99642.75;;;26.79;50.68
40612;BME280;26317;44.894;20.286;2023-08-30T10:26:16;99623.16;;;26.70;50.93
40612;BME280;26317;44.894;20.286;2023-08-30T10:28:52;99645.50;;;26.79;49.45
40612;BME280;26317;44.894;20.286;2023-08-30T10:31:31;99642.75;;;26.82;51.08
40612;BME280;26317;44.894;20.286;2023-08-30T10:34:13;99643.13;;;26.88;49.59
40612;BME280;26317;44.894;20.286;2023-08-30T10:37:06;99650.94;;;26.93;48.88
40612;BME280;26317;44.894;20.286;2023-08-30T10:39:49;99647.81;;;26.94;50.63
40612;BME280;26317;44.894;20.286;2023-08-30T10:42:34;99639.44;;;27.12;50.64
40612;BME280;26317;44.894;20.286;2023-08-30T10:45:13;99644.53;;;27.17;48.94
40612;BME280;26317;44.894;20.286;2023-08-30T10:47:57;99650.78;;;27.21;50.27
40612;BME280;26317;44.894;20.286;2023-08-30T10:50:37;99648.13;;;27.07;49.43
40612;BME280;26317;44.894;20.286;2023-08-30T10:53:37;99649.28;;;27.13;48.36
40612;BME280;26317;44.894;20.286;2023-08-30T10:56:14;99654.78;;;27.13;48.29
40612;BME280;26317;44.894;20.286;2023-08-30T10:59:25;99648.47;;;27.16;49.20
40612;BME280;26317;44.894;20.286;2023-08-30T11:02:05;99642.13;;;27.19;49.85
40612;BME280;26317;44.894;20.286;2023-08-30T11:04:43;99650.03;;;27.14;48.59
40612;BME280;26317;44.894;20.286;2023-08-30T11:07:25;99651.69;;;27.04;48.95
40612;BME280;26317;44.894;20.286;2023-08-30T11:10:09;99656.84;;;26.95;48.99
40612;BME280;26317;44.894;20.286;2023-08-30T11:12:47;99659.66;;;26.88;50.46
40612;BME280;26317;44.894;20.286;2023-08-30T11:15:23;99661.59;;;26.84;50.94
40612;BME280;26317;44.894;20.286;2023-08-30T11:18:11;99665.16;;;26.81;51.38
40612;BME280;26317;44.894;20.286;2023-08-30T11:21:26;99666.00;;;26.71;51.27
40612;BME280;26317;44.894;20.286;2023-08-30T11:24:07;99662.88;;;26.65;52.18
40612;BME280;26317;44.894;20.286;2023-08-30T11:26:44;99658.19;;;26.59;52.37
40612;BME280;26317;44.894;20.286;2023-08-30T11:29:19;99655.81;;;26.61;53.87
40612;BME280;26317;44.894;20.286;2023-08-30T11:31:54;99663.69;;;26.62;53.81
40612;BME280;26317;44.894;20.286;2023-08-30T11:34:32;99660.91;;;26.66;57.25
40612;BME280;26317;44.894;20.286;2023-08-30T11:37:13;99656.16;;;26.73;60.38
40612;BME280;26317;44.894;20.286;2023-08-30T11:39:54;99653.75;;;26.82;60.87
40612;BME280;26317;44.894;20.286;2023-08-30T11:42:32;99649.78;;;26.94;59.50
40612;BME280;26317;44.894;20.286;2023-08-30T11:45:09;99650.94;;;26.93;59.85
40612;BME280;26317;44.894;20.286;2023-08-30T11:47:47;99647.84;;;26.84;58.90
40612;BME280;26317;44.894;20.286;2023-08-30T11:50:22;99649.34;;;26.99;57.82
40612;BME280;26317;44.894;20.286;2023-08-30T11:53:08;99657.09;;;27.18;54.83
40612;BME280;26317;44.894;20.286;2023-08-30T11:55:52;99645.97;;;27.32;55.28
40612;BME280;26317;44.894;20.286;2023-08-30T11:58:50;99645.78;;;27.61;55.39
40612;BME280;26317;44.894;20.286;2023-08-30T12:01:25;99648.78;;;27.77;54.10
40612;BME280;26317;44.894;20.286;2023-08-30T12:04:23;99641.47;;;27.97;53.75
40612;BME280;26317;44.894;20.286;2023-08-30T12:06:58;99626.81;;;28.11;50.37
40612;BME280;26317;44.894;20.286;2023-08-30T12:09:35;99631.75;;;28.26;47.05
40612;BME280;26317;44.894;20.286;2023-08-30T12:12:15;99642.50;;;28.48;46.27
40612;BME280;26317;44.894;20.286;2023-08-30T12:15:01;99633.63;;;28.67;47.24
40612;BME280;26317;44.894;20.286;2023-08-30T12:17:45;99629.81;;;28.88;50.04
40612;BME280;26317;44.894;20.286;2023-08-30T12:20:23;99627.66;;;28.99;51.35
40612;BME280;26317;44.894;20.286;2023-08-30T12:23:27;99620.78;;;29.10;48.16
40612;BME280;26317;44.894;20.286;2023-08-30T12:26:31;99617.94;;;29.17;48.46
40612;BME280;26317;44.894;20.286;2023-08-30T12:29:17;99611.41;;;29.04;46.43
40612;BME280;26317;44.894;20.286;2023-08-30T12:32:13;99602.47;;;28.97;46.30
40612;BME280;26317;44.894;20.286;2023-08-30T12:34:51;99606.63;;;29.08;45.31
40612;BME280;26317;44.894;20.286;2023-08-30T12:37:26;99602.91;;;29.18;46.55
40612;BME280;26317;44.894;20.286;2023-08-30T12:40:13;99604.84;;;29.21;46.53
40612;BME280;26317;44.894;20.286;2023-08-30T12:42:51;99614.13;;;29.08;46.23
40612;BME280;26317;44.894;20.286;2023-08-30T12:45:37;99617.34;;;29.03;46.91
40612;BME280;26317;44.894;20.286;2023-08-30T12:48:19;99617.25;;;28.83;47.84
40612;BME280;26317;44.894;20.286;2023-08-30T12:51:05;99619.13;;;28.90;47.72
40612;BME280;26317;44.894;20.286;2023-08-30T12:53:50;99619.56;;;28.88;49.14
40612;BME280;26317;44.894;20.286;2023-08-30T12:56:37;99614.44;;;28.87;48.54
40612;BME280;26317;44.894;20.286;2023-08-30T12:59:29;99603.00;;;28.88;47.47
40612;BME280;26317;44.894;20.286;2023-08-30T13:02:05;99603.19;;;29.01;47.24
40612;BME280;26317;44.894;20.286;2023-08-30T13:04:39;99602.88;;;29.22;46.01
40612;BME280;26317;44.894;20.286;2023-08-30T13:07:21;99599.47;;;29.38;45.15
40612;BME280;26317;44.894;20.286;2023-08-30T13:09:57;99601.63;;;29.50;44.25
40612;BME280;26317;44.894;20.286;2023-08-30T13:12:38;99600.59;;;29.63;43.94
40612;BME280;26317;44.894;20.286;2023-08-30T13:15:15;99595.59;;;29.78;42.46
40612;BME280;26317;44.894;20.286;2023-08-30T13:18:07;99598.28;;;30.05;43.74
40612;BME280;26317;44.894;20.286;2023-08-30T13:20:56;99600.66;;;30.23;41.04
40612;BME280;26317;44.894;20.286;2023-08-30T13:23:34;99587.91;;;30.29;39.94
40612;BME280;26317;44.894;20.286;2023-08-30T13:26:29;99595.63;;;30.37;41.60
40612;BME280;26317;44.894;20.286;2023-08-30T13:29:14;99591.47;;;30.49;42.87
40612;BME280;26317;44.894;20.286;2023-08-30T13:31:54;99599.88;;;30.62;43.10
40612;BME280;26317;44.894;20.286;2023-08-30T13:34:37;99601.94;;;30.57;45.17
40612;BME280;26317;44.894;20.286;2023-08-30T13:37:30;99608.97;;;30.62;45.29
40612;BME280;26317;44.894;20.286;2023-08-30T13:40:17;99613.31;;;30.63;45.31
40612;BME280;26317;44.894;20.286;2023-08-30T13:42:53;99630.03;;;30.76;45.30
40612;BME280;26317;44.894;20.286;2023-08-30T13:46:04;99643.69;;;30.67;45.26
40612;BME280;26317;44.894;20.286;2023-08-30T13:48:43;99677.97;;;30.53;44.14
40612;BME280;26317;44.894;20.286;2023-08-30T13:51:38;99701.94;;;28.90;46.30
40612;BME280;26317;44.894;20.286;2023-08-30T13:54:21;99669.84;;;27.98;49.15
40612;BME280;26317;44.894;20.286;2023-08-30T13:56:59;99677.94;;;27.19;52.05
40612;BME280;26317;44.894;20.286;2023-08-30T13:59:30;99677.44;;;26.59;53.47
40612;BME280;26317;44.894;20.286;2023-08-30T14:02:07;99663.28;;;26.60;53.83
40612;BME280;26317;44.894;20.286;2023-08-30T14:04:56;99681.00;;;26.59;53.39
40612;BME280;26317;44.894;20.286;2023-08-30T14:07:31;99681.06;;;26.27;54.13